sensor_id;sensor_type;location;lat;lon;timestamp;P1;durP1;ratioP1;P2;durP2;ratioP2
18933;SDS011;9599;53.706;10.384;2022-07-06T00:01:04;6.57;;;2.07;;
18933;SDS011;9599;53.706;10.384;2022-07-06T00:03:32;8.33;;;2.30;;
18933;SDS011;9599;53.706;10.384;2022-07-06T00:06:00;7.50;;;2.30;;
18933;SDS011;9599;53.706;10.384;2022-07-06T00:08:29;7.43;;;2.10;;
18933;SDS011;9599;53.706;10.384;2022-07-06T00:10:57;5.30;;;2.00;;
18933;SDS011;9599;53.706;10.384;2022-07-06T00:13:25;6.40;;;2.27;;
18933;SDS011;9599;53.706;10.384;2022-07-06T00:15:53;5.53;;;1.90;;
18933;SDS011;9599;53.706;10.384;2022-07-06T00:18:21;4.37;;;1.90;;
18933;SDS011;9599;53.706;10.384;2022-07-06T00:20:49;5.97;;;2.10;;
18933;SDS011;9599;53.706;10.384;2022-07-06T00:23:19;5.17;;;2.00;;
18933;SDS011;9599;53.706;10.384;2022-07-06T00:25:48;3.43;;;1.87;;
18933;SDS011;9599;53.706;10.384;2022-07-06T00:28:16;5.87;;;1.93;;
18933;SDS011;9599;53.706;10.384;2022-07-06T00:30:44;7.97;;;2.40;;
18933;SDS011;9599;53.706;10.384;2022-07-06T00:33:12;6.47;;;2.17;;
18933;SDS011;9599;53.706;10.384;2022-07-06T00:35:41;5.93;;;2.30;;
18933;SDS011;9599;53.706;10.384;2022-07-06T00:38:09;7.80;;;2.10;;
18933;SDS011;9599;53.706;10.384;2022-07-06T00:40:37;8.73;;;2.63;;
18933;SDS011;9599;53.706;10.384;2022-07-06T00:43:06;4.20;;;1.90;;
18933;SDS011;9599;53.706;10.384;2022-07-06T00:45:34;6.90;;;2.37;;
18933;SDS011;9599;53.706;10.384;2022-07-06T00:48:02;8.13;;;2.27;;
18933;SDS011;9599;53.706;10.384;2022-07-06T00:50:31;6.10;;;2.30;;
18933;SDS011;9599;53.706;10.384;2022-07-06T00:53:02;5.03;;;2.17;;
18933;SDS011;9599;53.706;10.384;2022-07-06T00:55:33;5.10;;;2.40;;
18933;SDS011;9599;53.706;10.384;2022-07-06T00:58:02;8.00;;;2.37;;
18933;SDS011;9599;53.706;10.384;2022-07-06T01:00:32;7.10;;;2.47;;
18933;SDS011;9599;53.706;10.384;2022-07-06T01:03:00;3.87;;;1.83;;
18933;SDS011;9599;53.706;10.384;2022-07-06T01:05:29;6.20;;;2.30;;
18933;SDS011;9599;53.706;10.384;2022-07-06T01:07:56;6.17;;;2.23;;
18933;SDS011;9599;53.706;10.384;2022-07-06T01:10:24;4.93;;;2.47;;
18933;SDS011;9599;53.706;10.384;2022-07-06T01:12:53;5.50;;;2.27;;
18933;SDS011;9599;53.706;10.384;2022-07-06T01:15:24;3.47;;;2.13;;
18933;SDS011;9599;53.706;10.384;2022-07-06T01:17:54;5.17;;;2.33;;
18933;SDS011;9599;53.706;10.384;2022-07-06T01:20:30;5.37;;;2.37;;
18933;SDS011;9599;53.706;10.384;2022-07-06T01:22:58;6.23;;;2.20;;
18933;SDS011;9599;53.706;10.384;2022-07-06T01:25:27;4.00;;;2.00;;
18933;SDS011;9599;53.706;10.384;2022-07-06T01:27:55;5.47;;;2.50;;
18933;SDS011;9599;53.706;10.384;2022-07-06T01:30:23;7.60;;;2.47;;
18933;SDS011;9599;53.706;10.384;2022-07-06T01:32:51;4.97;;;1.90;;
18933;SDS011;9599;53.706;10.384;2022-07-06T01:35:19;5.30;;;2.33;;
18933;SDS011;9599;53.706;10.384;2022-07-06T01:37:50;5.57;;;2.60;;
18933;SDS011;9599;53.706;10.384;2022-07-06T01:40:18;5.93;;;2.20;;
18933;SDS011;9599;53.706;10.384;2022-07-06T01:42:46;3.93;;;2.17;;
18933;SDS011;9599;53.706;10.384;2022-07-06T01:45:14;5.93;;;2.63;;
18933;SDS011;9599;53.706;10.384;2022-07-06T01:47:42;5.73;;;2.40;;
18933;SDS011;9599;53.706;10.384;2022-07-06T01:50:10;5.33;;;2.10;;
18933;SDS011;9599;53.706;10.384;2022-07-06T01:52:43;4.40;;;2.27;;
18933;SDS011;9599;53.706;10.384;2022-07-06T01:55:13;5.37;;;2.03;;
18933;SDS011;9599;53.706;10.384;2022-07-06T01:57:42;4.77;;;2.10;;
18933;SDS011;9599;53.706;10.384;2022-07-06T02:00:11;5.90;;;2.50;;
18933;SDS011;9599;53.706;10.384;2022-07-06T02:02:40;7.50;;;2.23;;
18933;SDS011;9599;53.706;10.384;2022-07-06T02:05:10;5.37;;;2.23;;
18933;SDS011;9599;53.706;10.384;2022-07-06T02:07:39;3.83;;;1.97;;
18933;SDS011;9599;53.706;10.384;2022-07-06T02:10:09;4.27;;;2.07;;
18933;SDS011;9599;53.706;10.384;2022-07-06T02:12:38;5.90;;;2.27;;
18933;SDS011;9599;53.706;10.384;2022-07-06T02:15:06;6.83;;;2.10;;
18933;SDS011;9599;53.706;10.384;2022-07-06T02:17:35;8.67;;;2.30;;
18933;SDS011;9599;53.706;10.384;2022-07-06T02:20:03;3.27;;;2.07;;
18933;SDS011;9599;53.706;10.384;2022-07-06T02:22:32;6.73;;;2.10;;
18933;SDS011;9599;53.706;10.384;2022-07-06T02:25:00;4.70;;;2.10;;
18933;SDS011;9599;53.706;10.384;2022-07-06T02:27:29;4.80;;;2.10;;
18933;SDS011;9599;53.706;10.384;2022-07-06T02:30:01;5.30;;;2.07;;
18933;SDS011;9599;53.706;10.384;2022-07-06T02:32:31;5.20;;;2.30;;
18933;SDS011;9599;53.706;10.384;2022-07-06T02:34:59;6.13;;;2.00;;
18933;SDS011;9599;53.706;10.384;2022-07-06T02:37:26;5.93;;;1.60;;
18933;SDS011;9599;53.706;10.384;2022-07-06T02:39:55;6.10;;;1.50;;
18933;SDS011;9599;53.706;10.384;2022-07-06T02:42:25;2.70;;;1.50;;
18933;SDS011;9599;53.706;10.384;2022-07-06T02:44:53;3.37;;;1.30;;
18933;SDS011;9599;53.706;10.384;2022-07-06T02:47:22;4.10;;;0.93;;
18933;SDS011;9599;53.706;10.384;2022-07-06T02:49:50;2.27;;;1.10;;
18933;SDS011;9599;53.706;10.384;2022-07-06T02:52:20;3.40;;;1.00;;
18933;SDS011;9599;53.706;10.384;2022-07-06T02:54:48;3.53;;;0.87;;
18933;SDS011;9599;53.706;10.384;2022-07-06T02:57:17;2.50;;;1.00;;
18933;SDS011;9599;53.706;10.384;2022-07-06T02:59:45;1.07;;;0.90;;
18933;SDS011;9599;53.706;10.384;2022-07-06T03:02:16;2.03;;;0.90;;
18933;SDS011;9599;53.706;10.384;2022-07-06T03:04:46;1.40;;;0.87;;
18933;SDS011;9599;53.706;10.384;2022-07-06T03:07:15;2.20;;;0.90;;
18933;SDS011;9599;53.706;10.384;2022-07-06T03:09:44;2.63;;;0.87;;
18933;SDS011;9599;53.706;10.384;2022-07-06T03:12:12;2.43;;;1.03;;
18933;SDS011;9599;53.706;10.384;2022-07-06T03:14:40;2.83;;;0.87;;
18933;SDS011;9599;53.706;10.384;2022-07-06T03:17:08;2.00;;;1.00;;
18933;SDS011;9599;53.706;10.384;2022-07-06T03:19:36;1.90;;;0.90;;
18933;SDS011;9599;53.706;10.384;2022-07-06T03:22:06;3.97;;;1.10;;
18933;SDS011;9599;53.706;10.384;2022-07-06T03:24:33;1.63;;;0.87;;
18933;SDS011;9599;53.706;10.384;2022-07-06T03:27:02;2.63;;;1.00;;
18933;SDS011;9599;53.706;10.384;2022-07-06T03:29:32;1.70;;;0.90;;
18933;SDS011;9599;53.706;10.384;2022-07-06T03:32:01;3.77;;;0.83;;
18933;SDS011;9599;53.706;10.384;2022-07-06T03:34:30;2.40;;;1.10;;
18933;SDS011;9599;53.706;10.384;2022-07-06T03:36:59;2.90;;;1.10;;
18933;SDS011;9599;53.706;10.384;2022-07-06T03:39:29;3.87;;;1.10;;
18933;SDS011;9599;53.706;10.384;2022-07-06T03:41:59;3.00;;;0.90;;
18933;SDS011;9599;53.706;10.384;2022-07-06T03:44:27;2.33;;;1.10;;
18933;SDS011;9599;53.706;10.384;2022-07-06T03:46:55;2.70;;;1.10;;
18933;SDS011;9599;53.706;10.384;2022-07-06T03:49:25;1.83;;;1.10;;
18933;SDS011;9599;53.706;10.384;2022-07-06T03:51:57;2.97;;;1.20;;
18933;SDS011;9599;53.706;10.384;2022-07-06T03:54:26;2.90;;;1.10;;
18933;SDS011;9599;53.706;10.384;2022-07-06T03:56:58;3.07;;;1.20;;
18933;SDS011;9599;53.706;10.384;2022-07-06T03:59:26;2.83;;;1.10;;
18933;SDS011;9599;53.706;10.384;2022-07-06T04:01:54;3.73;;;1.27;;
18933;SDS011;9599;53.706;10.384;2022-07-06T04:04:23;4.27;;;1.33;;
18933;SDS011;9599;53.706;10.384;2022-07-06T04:06:52;2.93;;;1.20;;
18933;SDS011;9599;53.706;10.384;2022-07-06T04:09:20;2.90;;;1.40;;
18933;SDS011;9599;53.706;10.384;2022-07-06T04:11:48;4.03;;;1.43;;
18933;SDS011;9599;53.706;10.384;2022-07-06T04:14:18;3.57;;;1.30;;
18933;SDS011;9599;53.706;10.384;2022-07-06T04:16:46;3.00;;;1.40;;
18933;SDS011;9599;53.706;10.384;2022-07-06T04:19:15;3.57;;;1.30;;
18933;SDS011;9599;53.706;10.384;2022-07-06T04:21:43;4.93;;;1.40;;
18933;SDS011;9599;53.706;10.384;2022-07-06T04:24:10;3.40;;;1.53;;
18933;SDS011;9599;53.706;10.384;2022-07-06T04:26:39;6.17;;;1.60;;
18933;SDS011;9599;53.706;10.384;2022-07-06T04:29:08;5.23;;;1.60;;
18933;SDS011;9599;53.706;10.384;2022-07-06T04:31:38;3.70;;;1.60;;
18933;SDS011;9599;53.706;10.384;2022-07-06T04:34:06;2.83;;;1.40;;
18933;SDS011;9599;53.706;10.384;2022-07-06T04:36:34;3.87;;;1.40;;
18933;SDS011;9599;53.706;10.384;2022-07-06T04:39:02;4.00;;;1.43;;
18933;SDS011;9599;53.706;10.384;2022-07-06T04:41:30;5.63;;;1.83;;
18933;SDS011;9599;53.706;10.384;2022-07-06T04:43:58;4.27;;;1.60;;
18933;SDS011;9599;53.706;10.384;2022-07-06T04:46:26;2.60;;;1.50;;
18933;SDS011;9599;53.706;10.384;2022-07-06T04:48:57;7.13;;;1.73;;
18933;SDS011;9599;53.706;10.384;2022-07-06T04:51:28;4.77;;;2.20;;
18933;SDS011;9599;53.706;10.384;2022-07-06T04:53:57;5.90;;;1.70;;
18933;SDS011;9599;53.706;10.384;2022-07-06T04:56:25;5.67;;;1.63;;
18933;SDS011;9599;53.706;10.384;2022-07-06T04:58:54;5.90;;;2.10;;
18933;SDS011;9599;53.706;10.384;2022-07-06T05:01:23;3.03;;;1.70;;
18933;SDS011;9599;53.706;10.384;2022-07-06T05:03:51;7.10;;;1.80;;
18933;SDS011;9599;53.706;10.384;2022-07-06T05:06:23;3.33;;;1.47;;
18933;SDS011;9599;53.706;10.384;2022-07-06T05:08:50;8.10;;;1.77;;
18933;SDS011;9599;53.706;10.384;2022-07-06T05:11:19;5.23;;;1.80;;
18933;SDS011;9599;53.706;10.384;2022-07-06T05:13:49;5.87;;;1.50;;
18933;SDS011;9599;53.706;10.384;2022-07-06T05:16:17;2.90;;;1.60;;
18933;SDS011;9599;53.706;10.384;2022-07-06T05:18:45;5.57;;;1.73;;
18933;SDS011;9599;53.706;10.384;2022-07-06T05:21:13;5.70;;;1.97;;
18933;SDS011;9599;53.706;10.384;2022-07-06T05:23:43;5.87;;;1.87;;
18933;SDS011;9599;53.706;10.384;2022-07-06T05:26:11;6.47;;;1.70;;
18933;SDS011;9599;53.706;10.384;2022-07-06T05:28:39;5.80;;;2.20;;
18933;SDS011;9599;53.706;10.384;2022-07-06T05:31:10;4.50;;;1.77;;
18933;SDS011;9599;53.706;10.384;2022-07-06T05:33:39;4.97;;;1.60;;
18933;SDS011;9599;53.706;10.384;2022-07-06T05:36:08;3.40;;;1.70;;
18933;SDS011;9599;53.706;10.384;2022-07-06T05:38:37;5.30;;;1.63;;
18933;SDS011;9599;53.706;10.384;2022-07-06T05:41:07;5.97;;;1.87;;
18933;SDS011;9599;53.706;10.384;2022-07-06T05:43:35;3.90;;;1.80;;
18933;SDS011;9599;53.706;10.384;2022-07-06T05:46:03;4.37;;;1.70;;
18933;SDS011;9599;53.706;10.384;2022-07-06T05:48:34;8.17;;;1.73;;
18933;SDS011;9599;53.706;10.384;2022-07-06T05:51:19;5.57;;;1.50;;
18933;SDS011;9599;53.706;10.384;2022-07-06T05:53:47;3.70;;;1.70;;
18933;SDS011;9599;53.706;10.384;2022-07-06T05:56:16;6.37;;;1.70;;
18933;SDS011;9599;53.706;10.384;2022-07-06T05:58:45;6.87;;;1.57;;
18933;SDS011;9599;53.706;10.384;2022-07-06T06:01:13;4.80;;;1.60;;
18933;SDS011;9599;53.706;10.384;2022-07-06T06:03:46;5.87;;;1.80;;
18933;SDS011;9599;53.706;10.384;2022-07-06T06:06:14;6.63;;;1.93;;
18933;SDS011;9599;53.706;10.384;2022-07-06T06:08:42;3.57;;;1.63;;
18933;SDS011;9599;53.706;10.384;2022-07-06T06:11:10;5.40;;;1.70;;
18933;SDS011;9599;53.706;10.384;2022-07-06T06:13:41;4.57;;;1.70;;
18933;SDS011;9599;53.706;10.384;2022-07-06T06:16:09;5.23;;;1.90;;
18933;SDS011;9599;53.706;10.384;2022-07-06T06:18:38;4.10;;;1.33;;
18933;SDS011;9599;53.706;10.384;2022-07-06T06:21:08;4.37;;;1.83;;
18933;SDS011;9599;53.706;10.384;2022-07-06T06:23:36;3.77;;;2.00;;
18933;SDS011;9599;53.706;10.384;2022-07-06T06:26:04;5.20;;;1.90;;
18933;SDS011;9599;53.706;10.384;2022-07-06T06:28:32;6.17;;;1.70;;
18933;SDS011;9599;53.706;10.384;2022-07-06T06:31:02;4.20;;;1.60;;
18933;SDS011;9599;53.706;10.384;2022-07-06T06:33:30;2.77;;;1.43;;
18933;SDS011;9599;53.706;10.384;2022-07-06T06:35:57;4.50;;;1.60;;
18933;SDS011;9599;53.706;10.384;2022-07-06T06:38:25;5.63;;;1.50;;
18933;SDS011;9599;53.706;10.384;2022-07-06T06:40:55;6.93;;;1.60;;
18933;SDS011;9599;53.706;10.384;2022-07-06T06:43:24;6.13;;;1.60;;
18933;SDS011;9599;53.706;10.384;2022-07-06T06:46:01;4.93;;;1.47;;
18933;SDS011;9599;53.706;10.384;2022-07-06T06:48:29;6.73;;;1.70;;
18933;SDS011;9599;53.706;10.384;2022-07-06T06:50:58;4.90;;;1.57;;
18933;SDS011;9599;53.706;10.384;2022-07-06T06:53:26;5.17;;;1.63;;
18933;SDS011;9599;53.706;10.384;2022-07-06T06:55:54;6.77;;;1.53;;
18933;SDS011;9599;53.706;10.384;2022-07-06T06:58:21;5.20;;;1.20;;
18933;SDS011;9599;53.706;10.384;2022-07-06T07:00:50;4.47;;;1.40;;
18933;SDS011;9599;53.706;10.384;2022-07-06T07:03:19;5.27;;;1.40;;
18933;SDS011;9599;53.706;10.384;2022-07-06T07:05:47;5.67;;;1.60;;
18933;SDS011;9599;53.706;10.384;2022-07-06T07:08:15;4.13;;;1.10;;
18933;SDS011;9599;53.706;10.384;2022-07-06T07:10:43;5.10;;;1.50;;
18933;SDS011;9599;53.706;10.384;2022-07-06T07:13:11;5.60;;;1.77;;
18933;SDS011;9599;53.706;10.384;2022-07-06T07:15:38;3.63;;;1.30;;
18933;SDS011;9599;53.706;10.384;2022-07-06T07:18:06;5.17;;;1.30;;
18933;SDS011;9599;53.706;10.384;2022-07-06T07:20:49;3.77;;;1.20;;
18933;SDS011;9599;53.706;10.384;2022-07-06T07:23:17;3.77;;;1.30;;
18933;SDS011;9599;53.706;10.384;2022-07-06T07:25:45;6.50;;;1.27;;
18933;SDS011;9599;53.706;10.384;2022-07-06T07:28:13;3.60;;;1.00;;
18933;SDS011;9599;53.706;10.384;2022-07-06T07:30:41;4.00;;;1.40;;
18933;SDS011;9599;53.706;10.384;2022-07-06T07:33:09;4.50;;;1.17;;
18933;SDS011;9599;53.706;10.384;2022-07-06T07:35:37;4.77;;;1.40;;
18933;SDS011;9599;53.706;10.384;2022-07-06T07:38:06;5.17;;;1.30;;
18933;SDS011;9599;53.706;10.384;2022-07-06T07:40:34;4.07;;;0.90;;
18933;SDS011;9599;53.706;10.384;2022-07-06T07:43:02;4.90;;;1.20;;
18933;SDS011;9599;53.706;10.384;2022-07-06T07:45:30;2.50;;;0.90;;
18933;SDS011;9599;53.706;10.384;2022-07-06T07:47:57;2.53;;;1.13;;
18933;SDS011;9599;53.706;10.384;2022-07-06T07:50:25;2.87;;;1.23;;
18933;SDS011;9599;53.706;10.384;2022-07-06T07:52:55;3.60;;;1.20;;
18933;SDS011;9599;53.706;10.384;2022-07-06T07:55:24;3.53;;;1.20;;
18933;SDS011;9599;53.706;10.384;2022-07-06T07:58:06;4.87;;;1.10;;
18933;SDS011;9599;53.706;10.384;2022-07-06T08:00:34;3.87;;;1.20;;
18933;SDS011;9599;53.706;10.384;2022-07-06T08:03:03;4.23;;;1.10;;
18933;SDS011;9599;53.706;10.384;2022-07-06T08:05:31;7.17;;;1.47;;
18933;SDS011;9599;53.706;10.384;2022-07-06T08:07:59;6.40;;;1.30;;
18933;SDS011;9599;53.706;10.384;2022-07-06T08:10:28;4.80;;;1.40;;
18933;SDS011;9599;53.706;10.384;2022-07-06T08:13:06;3.73;;;1.50;;
18933;SDS011;9599;53.706;10.384;2022-07-06T08:15:34;5.97;;;1.50;;
18933;SDS011;9599;53.706;10.384;2022-07-06T08:18:02;5.90;;;1.57;;
18933;SDS011;9599;53.706;10.384;2022-07-06T08:20:30;5.10;;;1.40;;
18933;SDS011;9599;53.706;10.384;2022-07-06T08:22:58;5.47;;;1.60;;
18933;SDS011;9599;53.706;10.384;2022-07-06T08:25:28;2.50;;;1.33;;
18933;SDS011;9599;53.706;10.384;2022-07-06T08:27:56;4.30;;;1.40;;
18933;SDS011;9599;53.706;10.384;2022-07-06T08:30:24;5.53;;;1.53;;
18933;SDS011;9599;53.706;10.384;2022-07-06T08:32:52;4.63;;;1.60;;
18933;SDS011;9599;53.706;10.384;2022-07-06T08:35:35;4.53;;;1.97;;
18933;SDS011;9599;53.706;10.384;2022-07-06T08:38:03;3.00;;;1.53;;
18933;SDS011;9599;53.706;10.384;2022-07-06T08:40:33;4.93;;;1.73;;
18933;SDS011;9599;53.706;10.384;2022-07-06T08:43:02;4.87;;;1.87;;
18933;SDS011;9599;53.706;10.384;2022-07-06T08:45:30;5.80;;;1.50;;
18933;SDS011;9599;53.706;10.384;2022-07-06T08:48:03;4.20;;;1.50;;
18933;SDS011;9599;53.706;10.384;2022-07-06T08:50:33;4.50;;;1.63;;
18933;SDS011;9599;53.706;10.384;2022-07-06T08:53:01;6.13;;;1.93;;
18933;SDS011;9599;53.706;10.384;2022-07-06T08:55:30;4.47;;;1.50;;
18933;SDS011;9599;53.706;10.384;2022-07-06T08:58:00;3.90;;;1.70;;
18933;SDS011;9599;53.706;10.384;2022-07-06T09:00:28;5.50;;;1.50;;
18933;SDS011;9599;53.706;10.384;2022-07-06T09:02:56;4.07;;;1.30;;
18933;SDS011;9599;53.706;10.384;2022-07-06T09:05:25;4.63;;;1.30;;
18933;SDS011;9599;53.706;10.384;2022-07-06T09:07:53;5.50;;;1.70;;
18933;SDS011;9599;53.706;10.384;2022-07-06T09:10:25;2.77;;;1.53;;
18933;SDS011;9599;53.706;10.384;2022-07-06T09:13:02;2.47;;;1.40;;
18933;SDS011;9599;53.706;10.384;2022-07-06T09:15:31;3.73;;;1.23;;
18933;SDS011;9599;53.706;10.384;2022-07-06T09:18:00;3.43;;;1.43;;
18933;SDS011;9599;53.706;10.384;2022-07-06T09:20:28;5.33;;;1.63;;
18933;SDS011;9599;53.706;10.384;2022-07-06T09:22:57;4.07;;;1.30;;
18933;SDS011;9599;53.706;10.384;2022-07-06T09:25:26;3.57;;;1.17;;
18933;SDS011;9599;53.706;10.384;2022-07-06T09:27:56;3.27;;;1.20;;
18933;SDS011;9599;53.706;10.384;2022-07-06T09:30:26;1.90;;;1.10;;
18933;SDS011;9599;53.706;10.384;2022-07-06T09:32:56;2.40;;;1.20;;
18933;SDS011;9599;53.706;10.384;2022-07-06T09:35:25;2.47;;;1.00;;
18933;SDS011;9599;53.706;10.384;2022-07-06T09:38:01;4.33;;;1.17;;
18933;SDS011;9599;53.706;10.384;2022-07-06T09:40:31;2.37;;;1.03;;
18933;SDS011;9599;53.706;10.384;2022-07-06T09:43:10;3.10;;;1.20;;
18933;SDS011;9599;53.706;10.384;2022-07-06T09:45:45;4.50;;;1.23;;
18933;SDS011;9599;53.706;10.384;2022-07-06T09:48:16;2.73;;;1.23;;
18933;SDS011;9599;53.706;10.384;2022-07-06T09:50:49;3.03;;;1.40;;
18933;SDS011;9599;53.706;10.384;2022-07-06T09:53:19;4.37;;;1.20;;
18933;SDS011;9599;53.706;10.384;2022-07-06T09:55:49;1.80;;;1.30;;
18933;SDS011;9599;53.706;10.384;2022-07-06T09:58:17;2.37;;;1.20;;
18933;SDS011;9599;53.706;10.384;2022-07-06T10:01:08;4.07;;;1.00;;
18933;SDS011;9599;53.706;10.384;2022-07-06T10:03:36;3.77;;;0.83;;
18933;SDS011;9599;53.706;10.384;2022-07-06T10:06:05;2.03;;;0.80;;
18933;SDS011;9599;53.706;10.384;2022-07-06T10:08:34;3.43;;;1.03;;
18933;SDS011;9599;53.706;10.384;2022-07-06T10:11:03;4.03;;;0.80;;
18933;SDS011;9599;53.706;10.384;2022-07-06T10:13:32;1.13;;;0.80;;
18933;SDS011;9599;53.706;10.384;2022-07-06T10:16:02;1.97;;;0.70;;
18933;SDS011;9599;53.706;10.384;2022-07-06T10:18:33;2.70;;;0.70;;
18933;SDS011;9599;53.706;10.384;2022-07-06T10:21:01;2.03;;;0.83;;
18933;SDS011;9599;53.706;10.384;2022-07-06T10:23:30;2.60;;;0.80;;
18933;SDS011;9599;53.706;10.384;2022-07-06T10:25:59;2.43;;;1.00;;
18933;SDS011;9599;53.706;10.384;2022-07-06T10:28:29;2.43;;;0.90;;
18933;SDS011;9599;53.706;10.384;2022-07-06T10:30:57;4.07;;;0.80;;
18933;SDS011;9599;53.706;10.384;2022-07-06T10:33:25;3.63;;;0.80;;
18933;SDS011;9599;53.706;10.384;2022-07-06T10:35:55;3.53;;;0.90;;
18933;SDS011;9599;53.706;10.384;2022-07-06T10:38:29;3.27;;;0.87;;
18933;SDS011;9599;53.706;10.384;2022-07-06T10:41:01;3.20;;;0.87;;
18933;SDS011;9599;53.706;10.384;2022-07-06T10:43:33;1.60;;;0.80;;
18933;SDS011;9599;53.706;10.384;2022-07-06T10:46:05;2.53;;;0.70;;
18933;SDS011;9599;53.706;10.384;2022-07-06T10:48:34;3.53;;;0.73;;
18933;SDS011;9599;53.706;10.384;2022-07-06T10:51:04;2.13;;;0.70;;
18933;SDS011;9599;53.706;10.384;2022-07-06T10:53:32;0.93;;;0.60;;
18933;SDS011;9599;53.706;10.384;2022-07-06T10:56:02;2.40;;;0.80;;
18933;SDS011;9599;53.706;10.384;2022-07-06T10:58:47;2.20;;;0.90;;
18933;SDS011;9599;53.706;10.384;2022-07-06T11:01:18;2.73;;;0.80;;
18933;SDS011;9599;53.706;10.384;2022-07-06T11:03:47;0.80;;;0.70;;
18933;SDS011;9599;53.706;10.384;2022-07-06T11:06:18;5.40;;;1.13;;
18933;SDS011;9599;53.706;10.384;2022-07-06T11:08:48;1.80;;;0.70;;
18933;SDS011;9599;53.706;10.384;2022-07-06T11:11:21;2.90;;;0.70;;
18933;SDS011;9599;53.706;10.384;2022-07-06T11:13:51;2.60;;;0.70;;
18933;SDS011;9599;53.706;10.384;2022-07-06T11:16:21;2.80;;;0.90;;
18933;SDS011;9599;53.706;10.384;2022-07-06T11:19:06;2.00;;;0.80;;
18933;SDS011;9599;53.706;10.384;2022-07-06T11:21:40;1.83;;;0.73;;
18933;SDS011;9599;53.706;10.384;2022-07-06T11:24:12;2.45;;;0.93;;
18933;SDS011;9599;53.706;10.384;2022-07-06T11:26:44;2.50;;;0.70;;
18933;SDS011;9599;53.706;10.384;2022-07-06T11:29:13;1.77;;;0.60;;
18933;SDS011;9599;53.706;10.384;2022-07-06T11:31:42;2.03;;;0.80;;
18933;SDS011;9599;53.706;10.384;2022-07-06T11:34:12;3.80;;;0.73;;
18933;SDS011;9599;53.706;10.384;2022-07-06T11:36:46;3.27;;;0.80;;
18933;SDS011;9599;53.706;10.384;2022-07-06T11:39:14;2.10;;;0.70;;
18933;SDS011;9599;53.706;10.384;2022-07-06T11:41:42;2.40;;;0.60;;
18933;SDS011;9599;53.706;10.384;2022-07-06T11:44:16;3.23;;;0.80;;
18933;SDS011;9599;53.706;10.384;2022-07-06T11:46:45;0.70;;;0.50;;
18933;SDS011;9599;53.706;10.384;2022-07-06T11:49:13;2.60;;;0.70;;
18933;SDS011;9599;53.706;10.384;2022-07-06T11:51:42;1.93;;;0.73;;
18933;SDS011;9599;53.706;10.384;2022-07-06T11:54:14;4.47;;;0.80;;
18933;SDS011;9599;53.706;10.384;2022-07-06T11:56:46;1.70;;;0.80;;
18933;SDS011;9599;53.706;10.384;2022-07-06T11:59:16;2.83;;;0.73;;
18933;SDS011;9599;53.706;10.384;2022-07-06T12:01:47;3.30;;;0.90;;
18933;SDS011;9599;53.706;10.384;2022-07-06T12:04:15;3.03;;;0.77;;
18933;SDS011;9599;53.706;10.384;2022-07-06T12:06:43;3.87;;;0.80;;
18933;SDS011;9599;53.706;10.384;2022-07-06T12:09:13;2.80;;;0.80;;
18933;SDS011;9599;53.706;10.384;2022-07-06T12:11:43;4.80;;;0.90;;
18933;SDS011;9599;53.706;10.384;2022-07-06T12:14:13;5.43;;;0.80;;
18933;SDS011;9599;53.706;10.384;2022-07-06T12:16:42;2.30;;;0.57;;
18933;SDS011;9599;53.706;10.384;2022-07-06T12:19:10;1.47;;;0.60;;
18933;SDS011;9599;53.706;10.384;2022-07-06T12:21:42;3.90;;;0.80;;
18933;SDS011;9599;53.706;10.384;2022-07-06T12:24:17;2.10;;;0.67;;
18933;SDS011;9599;53.706;10.384;2022-07-06T12:26:46;2.47;;;0.70;;
18933;SDS011;9599;53.706;10.384;2022-07-06T12:29:16;2.37;;;0.90;;
18933;SDS011;9599;53.706;10.384;2022-07-06T12:31:47;3.53;;;0.93;;
18933;SDS011;9599;53.706;10.384;2022-07-06T12:34:18;2.47;;;0.90;;
18933;SDS011;9599;53.706;10.384;2022-07-06T12:36:47;3.00;;;0.80;;
18933;SDS011;9599;53.706;10.384;2022-07-06T12:39:18;3.07;;;0.80;;
18933;SDS011;9599;53.706;10.384;2022-07-06T12:41:48;2.10;;;0.77;;
18933;SDS011;9599;53.706;10.384;2022-07-06T12:44:17;3.40;;;0.87;;
18933;SDS011;9599;53.706;10.384;2022-07-06T12:46:47;3.73;;;0.70;;
18933;SDS011;9599;53.706;10.384;2022-07-06T12:49:17;4.63;;;0.80;;
18933;SDS011;9599;53.706;10.384;2022-07-06T12:51:59;1.37;;;0.70;;
18933;SDS011;9599;53.706;10.384;2022-07-06T12:54:30;4.60;;;0.90;;
18933;SDS011;9599;53.706;10.384;2022-07-06T12:57:07;2.23;;;0.80;;
18933;SDS011;9599;53.706;10.384;2022-07-06T12:59:39;2.17;;;0.80;;
18933;SDS011;9599;53.706;10.384;2022-07-06T13:02:09;2.73;;;0.70;;
18933;SDS011;9599;53.706;10.384;2022-07-06T13:04:53;2.23;;;0.80;;
18933;SDS011;9599;53.706;10.384;2022-07-06T13:07:22;2.60;;;0.73;;
18933;SDS011;9599;53.706;10.384;2022-07-06T13:09:52;3.57;;;0.77;;
18933;SDS011;9599;53.706;10.384;2022-07-06T13:12:20;1.43;;;0.70;;
18933;SDS011;9599;53.706;10.384;2022-07-06T13:14:49;1.13;;;0.50;;
18933;SDS011;9599;53.706;10.384;2022-07-06T13:17:17;1.53;;;0.50;;
18933;SDS011;9599;53.706;10.384;2022-07-06T13:19:45;3.20;;;0.70;;
18933;SDS011;9599;53.706;10.384;2022-07-06T13:22:13;9.47;;;0.77;;
18933;SDS011;9599;53.706;10.384;2022-07-06T13:24:41;5.03;;;0.70;;
18933;SDS011;9599;53.706;10.384;2022-07-06T13:27:11;1.60;;;0.60;;
18933;SDS011;9599;53.706;10.384;2022-07-06T13:29:39;2.20;;;0.57;;
18933;SDS011;9599;53.706;10.384;2022-07-06T13:32:07;0.97;;;0.70;;
18933;SDS011;9599;53.706;10.384;2022-07-06T13:34:35;2.43;;;0.43;;
18933;SDS011;9599;53.706;10.384;2022-07-06T13:37:04;3.00;;;0.80;;
18933;SDS011;9599;53.706;10.384;2022-07-06T13:39:32;2.83;;;0.70;;
18933;SDS011;9599;53.706;10.384;2022-07-06T13:42:00;0.60;;;0.40;;
18933;SDS011;9599;53.706;10.384;2022-07-06T13:44:29;2.50;;;0.60;;
18933;SDS011;9599;53.706;10.384;2022-07-06T13:46:57;1.30;;;0.47;;
18933;SDS011;9599;53.706;10.384;2022-07-06T13:49:26;1.10;;;0.50;;
18933;SDS011;9599;53.706;10.384;2022-07-06T13:51:57;1.30;;;0.60;;
18933;SDS011;9599;53.706;10.384;2022-07-06T13:54:30;1.93;;;0.70;;
18933;SDS011;9599;53.706;10.384;2022-07-06T13:57:00;2.87;;;0.77;;
18933;SDS011;9599;53.706;10.384;2022-07-06T13:59:31;3.27;;;0.60;;
18933;SDS011;9599;53.706;10.384;2022-07-06T14:01:59;1.83;;;0.80;;
18933;SDS011;9599;53.706;10.384;2022-07-06T14:04:27;2.03;;;0.67;;
18933;SDS011;9599;53.706;10.384;2022-07-06T14:06:55;2.53;;;0.50;;
18933;SDS011;9599;53.706;10.384;2022-07-06T14:09:23;1.50;;;0.50;;
18933;SDS011;9599;53.706;10.384;2022-07-06T14:11:51;3.10;;;0.50;;
18933;SDS011;9599;53.706;10.384;2022-07-06T14:14:19;3.53;;;0.80;;
18933;SDS011;9599;53.706;10.384;2022-07-06T14:16:48;1.80;;;0.67;;
18933;SDS011;9599;53.706;10.384;2022-07-06T14:19:17;2.20;;;0.67;;
18933;SDS011;9599;53.706;10.384;2022-07-06T14:21:47;1.53;;;0.70;;
18933;SDS011;9599;53.706;10.384;2022-07-06T14:24:15;2.87;;;0.60;;
18933;SDS011;9599;53.706;10.384;2022-07-06T14:26:43;1.50;;;0.73;;
18933;SDS011;9599;53.706;10.384;2022-07-06T14:29:11;3.13;;;0.77;;
18933;SDS011;9599;53.706;10.384;2022-07-06T14:31:39;5.57;;;0.70;;
18933;SDS011;9599;53.706;10.384;2022-07-06T14:34:08;4.07;;;0.70;;
18933;SDS011;9599;53.706;10.384;2022-07-06T14:36:36;3.07;;;0.80;;
18933;SDS011;9599;53.706;10.384;2022-07-06T14:39:04;2.53;;;0.77;;
18933;SDS011;9599;53.706;10.384;2022-07-06T14:41:32;2.53;;;0.70;;
18933;SDS011;9599;53.706;10.384;2022-07-06T14:44:01;1.43;;;0.60;;
18933;SDS011;9599;53.706;10.384;2022-07-06T14:46:29;3.03;;;0.70;;
18933;SDS011;9599;53.706;10.384;2022-07-06T14:48:57;2.00;;;0.70;;
18933;SDS011;9599;53.706;10.384;2022-07-06T14:51:27;3.70;;;0.80;;
18933;SDS011;9599;53.706;10.384;2022-07-06T14:53:54;2.20;;;0.70;;
18933;SDS011;9599;53.706;10.384;2022-07-06T14:56:22;2.93;;;0.90;;
18933;SDS011;9599;53.706;10.384;2022-07-06T14:58:50;1.83;;;0.60;;
18933;SDS011;9599;53.706;10.384;2022-07-06T15:01:38;6.10;;;0.97;;